Time;durP1;ratioP1;P1;durP2;ratioP2;P2;SDS_P1;SDS_P2;PMS_P1;PMS_P2;Temp;Humidity;BMP_temperature;BMP_pressure;BME280_temperature;BME280_humidity;BME280_pressure;Samples;Min_cycle;Max_cycle;Signal;HPM_P1;HPM_P2
2021/05/19 00:02:07;;;;;;;;;;;;;;;20.30;39.65;99897.16;4423453;32;20006;-52
2021/05/19 00:04:33;;;;;;;;;;;;;;;20.30;39.76;99894.50;4418568;32;19957;-54
2021/05/19 00:06:59;;;;;;;;;;;;;;;20.31;39.81;99896.28;4426910;32;19953;-48
2021/05/19 00:09:25;;;;;;;;;;;;;;;20.26;39.90;99888.34;4419128;32;19995;-53
2021/05/19 00:11:51;;;;;;;;;;;;;;;20.22;40.03;99890.09;4427627;32;20629;-53
2021/05/19 00:14:17;;;;;;;;;;;;;;;20.28;40.20;99890.97;4417843;32;19966;-50
2021/05/19 00:16:43;;;;;;;;;;;;;;;20.25;39.82;99889.22;4423794;32;19966;-49
2021/05/19 00:19:08;;;;;;;;;;;;;;;20.26;39.69;99892.72;4433405;32;20323;-50
2021/05/19 00:21:34;;;;;;;;;;;;;;;20.24;40.32;99895.34;4433959;32;19958;-52
2021/05/19 00:24:00;;;;;;;;;;;;;;;20.25;39.64;99880.41;4434115;32;20003;-50
2021/05/19 00:26:26;;;;;;;;;;;;;;;20.25;39.52;99885.69;4431125;32;20777;-51
2021/05/19 00:28:52;;;;;;;;;;;;;;;20.21;39.94;99880.38;4417941;32;19965;-52
2021/05/19 00:31:20;;;;;;;;;;;;;;;20.24;40.10;99890.06;4418896;32;19997;-51
2021/05/19 00:33:46;;;;;;;;;;;;;;;20.24;39.92;99890.06;4433205;32;20344;-52
2021/05/19 00:36:12;;;;;;;;;;;;;;;20.22;39.75;99887.44;4432447;32;19950;-50
2021/05/19 00:38:38;;;;;;;;;;;;;;;20.22;39.67;99892.72;4417715;32;20360;-48
2021/05/19 00:41:04;;;;;;;;;;;;;;;20.22;39.66;99894.47;4431712;32;19941;-50
2021/05/19 00:43:29;;;;;;;;;;;;;;;20.20;39.38;99890.94;4419430;32;19973;-51
2021/05/19 00:45:55;;;;;;;;;;;;;;;20.24;39.33;99894.50;4417991;32;19954;-54
2021/05/19 00:48:21;;;;;;;;;;;;;;;20.22;39.50;99895.37;4430049;32;19950;-51
2021/05/19 00:50:47;;;;;;;;;;;;;;;20.20;39.60;99889.19;4432568;32;20331;-51
2021/05/19 00:53:13;;;;;;;;;;;;;;;20.18;39.64;99885.63;4421842;32;19964;-52
2021/05/19 00:55:39;;;;;;;;;;;;;;;20.22;39.38;99887.44;4418419;32;19955;-53
2021/05/19 00:58:05;;;;;;;;;;;;;;;20.20;39.51;99886.56;4427755;32;19972;-51
2021/05/19 01:00:31;;;;;;;;;;;;;;;20.19;39.42;99890.06;4433032;32;19953;-51
2021/05/19 01:02:57;;;;;;;;;;;;;;;20.17;39.75;99889.16;4423830;32;19946;-50
2021/05/19 01:06:11;;;;;;;;;;;;;;;20.18;39.44;99885.63;4417618;32;20049;-52
2021/05/19 01:10:54;;;;;;;;;;;;;;;20.14;39.51;99886.50;4403022;32;19996;-53
2021/05/19 01:13:19;;;;;;;;;;;;;;;20.19;39.50;99882.16;4406606;32;19973;-53
2021/05/19 01:15:45;;;;;;;;;;;;;;;20.21;39.46;99887.41;4401813;32;19947;-49
2021/05/19 01:18:11;;;;;;;;;;;;;;;20.20;39.30;99886.56;4411421;32;19958;-49
2021/05/19 01:20:37;;;;;;;;;;;;;;;20.25;39.41;99896.25;4426321;32;20378;-52
2021/05/19 01:23:03;;;;;;;;;;;;;;;20.19;39.51;99886.53;4412401;32;19994;-53
2021/05/19 01:25:29;;;;;;;;;;;;;;;20.18;39.37;99885.63;4402162;32;19967;-50
2021/05/19 01:27:55;;;;;;;;;;;;;;;20.26;39.27;99880.41;4407876;32;20366;-51
2021/05/19 01:30:21;;;;;;;;;;;;;;;20.20;39.12;99889.19;4416458;32;19989;-49
2021/05/19 01:32:47;;;;;;;;;;;;;;;20.10;39.66;99891.75;4416924;32;19979;-52
2021/05/19 01:35:16;;;;;;;;;;;;;;;20.12;39.52;99890.91;4417035;32;19950;-52
2021/05/19 01:37:42;;;;;;;;;;;;;;;20.10;39.57;99889.13;4417814;32;19958;-51
2021/05/19 01:40:08;;;;;;;;;;;;;;;20.09;39.64;99890.91;4415775;32;19965;-49
2021/05/19 01:42:33;;;;;;;;;;;;;;;20.10;39.56;99894.41;4417529;32;20295;-52
2021/05/19 01:44:59;;;;;;;;;;;;;;;20.09;39.57;99893.53;4417276;32;19954;-52
2021/05/19 01:47:25;;;;;;;;;;;;;;;20.11;39.48;99898.81;4416426;32;19976;-52
2021/05/19 01:49:51;;;;;;;;;;;;;;;20.12;39.58;99896.19;4421990;32;19963;-53
2021/05/19 01:52:17;;;;;;;;;;;;;;;20.07;39.61;99897.94;4424476;32;19967;-50
2021/05/19 01:54:44;;;;;;;;;;;;;;;20.11;39.63;99894.44;4402494;32;20011;-52
2021/05/19 01:57:10;;;;;;;;;;;;;;;20.16;39.38;99892.69;4402353;32;20003;-49
2021/05/19 01:59:36;;;;;;;;;;;;;;;20.14;39.63;99898.84;4414299;32;19984;-48
2021/05/19 02:02:02;;;;;;;;;;;;;;;20.14;39.50;99897.06;4416907;32;20384;-51
2021/05/19 02:04:28;;;;;;;;;;;;;;;20.08;39.85;99894.41;4416610;32;20573;-53
2021/05/19 02:06:55;;;;;;;;;;;;;;;20.08;39.56;99900.56;4416587;32;19950;-52
2021/05/19 02:09:20;;;;;;;;;;;;;;;20.10;39.56;99905.88;4416051;32;20922;-50
2021/05/19 02:11:46;;;;;;;;;;;;;;;20.14;39.60;99902.37;4417074;32;19954;-52
2021/05/19 02:14:12;;;;;;;;;;;;;;;20.08;39.82;99899.69;4407462;32;20263;-54
2021/05/19 02:16:38;;;;;;;;;;;;;;;20.14;39.46;99902.37;4407636;32;19995;-50
2021/05/19 02:19:04;;;;;;;;;;;;;;;20.10;39.37;99900.59;4415333;32;19964;-54
2021/05/19 02:21:30;;;;;;;;;;;;;;;20.07;39.68;99900.59;4416491;32;19973;-53
2021/05/19 02:23:56;;;;;;;;;;;;;;;20.03;39.80;99901.41;4415916;32;19969;-50
2021/05/19 02:26:22;;;;;;;;;;;;;;;20.07;39.80;99900.59;4418492;32;19950;-50
2021/05/19 02:28:48;;;;;;;;;;;;;;;20.06;39.73;99899.69;4415251;32;20040;-53
2021/05/19 02:31:14;;;;;;;;;;;;;;;20.09;39.53;99904.13;4401420;32;19973;-52
2021/05/19 02:33:40;;;;;;;;;;;;;;;20.08;39.49;99907.63;4405608;32;19954;-53
2021/05/19 02:36:05;;;;;;;;;;;;;;;20.04;39.52;99901.44;4415568;32;19992;-49
2021/05/19 02:38:32;;;;;;;;;;;;;;;20.13;39.71;99905.88;4416712;32;19992;-52
2021/05/19 02:40:58;;;;;;;;;;;;;;;20.05;39.60;99904.94;4417357;32;19965;-52
2021/05/19 02:43:24;;;;;;;;;;;;;;;20.03;39.65;99896.13;4416312;32;20334;-53
2021/05/19 02:45:50;;;;;;;;;;;;;;;20.04;39.74;99903.19;4416697;32;19950;-49
2021/05/19 02:48:16;;;;;;;;;;;;;;;20.01;39.70;99903.16;4403841;32;19969;-54
2021/05/19 02:50:42;;;;;;;;;;;;;;;20.03;39.55;99902.31;4414969;32;19964;-51
2021/05/19 02:53:07;;;;;;;;;;;;;;;19.99;39.63;99910.22;4415747;32;20168;-49
2021/05/19 02:55:34;;;;;;;;;;;;;;;19.98;39.83;99906.66;4403429;32;20006;-55
2021/05/19 02:57:59;;;;;;;;;;;;;;;20.03;39.78;99919.91;4401156;32;20343;-51
2021/05/19 03:00:25;;;;;;;;;;;;;;;20.02;39.64;99916.41;4412652;32;19962;-50
2021/05/19 03:02:51;;;;;;;;;;;;;;;20.06;39.64;99915.53;4421021;32;19977;-51
2021/05/19 03:05:17;;;;;;;;;;;;;;;20.06;39.67;99922.56;4406346;32;20357;-49
2021/05/19 03:07:44;;;;;;;;;;;;;;;19.99;39.71;99919.00;4402240;32;20006;-51
2021/05/19 03:10:10;;;;;;;;;;;;;;;20.07;39.53;99927.88;4410418;32;19968;-51
2021/05/19 03:12:36;;;;;;;;;;;;;;;20.01;39.73;99927.84;4419468;32;20393;-51
2021/05/19 03:15:02;;;;;;;;;;;;;;;19.99;39.81;99931.34;4419070;32;19970;-47
2021/05/19 03:17:28;;;;;;;;;;;;;;;19.97;39.67;99919.88;4418585;32;19984;-51
2021/05/19 03:19:54;;;;;;;;;;;;;;;19.94;39.67;99929.56;4411698;32;19950;-53
2021/05/19 03:22:20;;;;;;;;;;;;;;;20.00;39.59;99923.44;4403416;32;19980;-51
2021/05/19 03:24:46;;;;;;;;;;;;;;;19.99;39.58;99932.22;4408650;32;19976;-51
2021/05/19 03:27:12;;;;;;;;;;;;;;;19.90;39.78;99927.72;4419664;32;19965;-51
2021/05/19 03:29:38;;;;;;;;;;;;;;;19.94;39.88;99931.31;4419757;32;20546;-51
2021/05/19 03:32:03;;;;;;;;;;;;;;;20.00;39.43;99935.75;4403835;32;19973;-52
2021/05/19 03:34:29;;;;;;;;;;;;;;;19.97;39.62;99935.75;4406305;32;19958;-51
2021/05/19 03:36:55;;;;;;;;;;;;;;;19.93;39.87;99933.06;4418527;32;19962;-54
2021/05/19 03:39:21;;;;;;;;;;;;;;;19.96;39.59;99939.28;4417740;32;19985;-51
2021/05/19 03:41:47;;;;;;;;;;;;;;;19.92;39.86;99941.88;4419090;32;19954;-50
2021/05/19 03:44:13;;;;;;;;;;;;;;;19.92;39.88;99936.56;4418173;32;19962;-54
2021/05/19 03:46:39;;;;;;;;;;;;;;;19.92;39.64;99941.88;4418784;32;19954;-53
2021/05/19 03:49:05;;;;;;;;;;;;;;;20.00;39.56;99939.31;4418592;32;19970;-51
2021/05/19 03:51:31;;;;;;;;;;;;;;;19.93;39.70;99943.62;4418695;32;19957;-53
2021/05/19 03:53:57;;;;;;;;;;;;;;;19.93;39.79;99943.62;4418879;32;20388;-52
2021/05/19 03:56:23;;;;;;;;;;;;;;;19.92;39.86;99941.88;4405500;32;20034;-51
2021/05/19 03:58:48;;;;;;;;;;;;;;;19.95;40.01;99943.66;4402352;32;20344;-53
2021/05/19 04:01:14;;;;;;;;;;;;;;;19.99;39.51;99942.78;4413017;32;19984;-48
2021/05/19 04:03:40;;;;;;;;;;;;;;;19.96;39.77;99944.56;4422452;32;19993;-50
2021/05/19 04:06:06;;;;;;;;;;;;;;;19.92;39.69;99947.16;4411612;32;19955;-48
2021/05/19 04:08:32;;;;;;;;;;;;;;;19.94;39.97;99945.44;4403144;32;20367;-50
2021/05/19 04:10:58;;;;;;;;;;;;;;;19.93;39.88;99943.62;4410996;32;19969;-49
2021/05/19 04:13:24;;;;;;;;;;;;;;;19.98;39.60;99950.72;4417048;32;20300;-52
2021/05/19 04:15:50;;;;;;;;;;;;;;;19.94;39.68;99949.81;4418509;32;19954;-51
2021/05/19 04:18:16;;;;;;;;;;;;;;;19.93;39.95;99948.91;4418192;32;19954;-46
2021/05/19 04:20:42;;;;;;;;;;;;;;;19.91;39.77;99953.28;4418219;32;19954;-50
2021/05/19 04:23:08;;;;;;;;;;;;;;;19.94;40.02;99950.72;4417355;32;19998;-48
2021/05/19 04:25:35;;;;;;;;;;;;;;;19.91;39.75;99949.78;4417534;32;19964;-52
2021/05/19 04:28:01;;;;;;;;;;;;;;;19.97;39.60;99959.53;4418274;32;19968;-54
2021/05/19 04:30:27;;;;;;;;;;;;;;;19.96;39.73;99960.41;4414544;32;20307;-50
2021/05/19 04:32:53;;;;;;;;;;;;;;;19.98;39.71;99963.94;4403477;32;19959;-49
2021/05/19 04:35:19;;;;;;;;;;;;;;;19.96;39.92;99961.28;4403907;32;20253;-50
2021/05/19 04:37:45;;;;;;;;;;;;;;;19.88;40.06;99966.47;4418737;32;19999;-48
2021/05/19 04:40:11;;;;;;;;;;;;;;;19.89;39.74;99959.44;4417166;32;20388;-50
2021/05/19 04:42:37;;;;;;;;;;;;;;;19.93;39.87;99970.06;4402665;32;19987;-52
2021/05/19 04:45:03;;;;;;;;;;;;;;;19.92;39.96;99976.22;4402248;32;19972;-52
2021/05/19 04:47:29;;;;;;;;;;;;;;;19.92;39.79;99970.94;4415179;32;20001;-50
2021/05/19 04:49:54;;;;;;;;;;;;;;;19.86;39.94;99968.22;4422688;32;19994;-52
2021/05/19 04:52:22;;;;;;;;;;;;;;;19.82;40.43;99968.19;4405664;32;20069;-53
2021/05/19 04:54:48;;;;;;;;;;;;;;;19.78;40.09;99975.19;4402914;32;19951;-51
2021/05/19 04:57:14;;;;;;;;;;;;;;;19.78;40.19;99975.19;4412337;32;19964;-50
2021/05/19 04:59:40;;;;;;;;;;;;;;;19.83;40.21;99977.87;4416214;32;19987;-51
2021/05/19 05:02:06;;;;;;;;;;;;;;;19.86;40.20;99977.91;4415363;32;19986;-52
2021/05/19 05:04:32;;;;;;;;;;;;;;;19.79;40.46;99975.22;4417120;32;20341;-52
2021/05/19 05:06:58;;;;;;;;;;;;;;;19.86;40.08;99977.91;4417994;32;19954;-52
2021/05/19 05:09:25;;;;;;;;;;;;;;;19.83;40.27;99978.78;4414514;32;20384;-51
2021/05/19 05:11:51;;;;;;;;;;;;;;;19.82;40.06;99977.00;4419072;32;19977;-51
2021/05/19 05:14:17;;;;;;;;;;;;;;;19.80;40.13;99978.72;4422368;32;19971;-54
2021/05/19 05:16:43;;;;;;;;;;;;;;;19.85;40.16;99978.78;4428575;32;20004;-52
2021/05/19 05:19:09;;;;;;;;;;;;;;;19.87;40.13;99987.59;4425397;32;19954;-50
2021/05/19 05:21:35;;;;;;;;;;;;;;;19.84;40.25;99987.56;4422563;32;19982;-53
2021/05/19 05:24:01;;;;;;;;;;;;;;;19.82;40.32;99991.97;4425138;32;20386;-49
2021/05/19 05:26:27;;;;;;;;;;;;;;;19.85;40.54;99990.25;4425349;32;19946;-51
2021/05/19 05:28:53;;;;;;;;;;;;;;;19.84;40.13;99991.13;4426109;32;20606;-51
2021/05/19 05:31:19;;;;;;;;;;;;;;;19.80;40.29;99994.59;4425581;32;19985;-51
2021/05/19 05:33:46;;;;;;;;;;;;;;;19.78;40.35;99996.34;4425788;32;19953;-54
2021/05/19 05:36:12;;;;;;;;;;;;;;;19.80;40.55;99998.12;4425814;32;19946;-51
2021/05/19 05:38:38;;;;;;;;;;;;;;;19.78;40.35;100001.62;4430098;32;20005;-52
2021/05/19 05:41:04;;;;;;;;;;;;;;;19.78;40.77;99999.88;4433570;32;20039;-49
2021/05/19 05:43:30;;;;;;;;;;;;;;;19.78;40.60;100001.62;4418327;32;20626;-50
2021/05/19 05:45:56;;;;;;;;;;;;;;;19.78;40.54;100001.62;4418181;32;19946;-53
2021/05/19 05:48:22;;;;;;;;;;;;;;;19.78;40.69;100001.62;4428788;32;19954;-52
2021/05/19 05:50:47;;;;;;;;;;;;;;;19.80;40.35;99999.88;4432843;32;19993;-53
2021/05/19 05:53:13;;;;;;;;;;;;;;;19.83;40.34;99999.91;4425078;32;19984;-50
2021/05/19 05:55:39;;;;;;;;;;;;;;;19.88;40.39;100002.56;4417396;32;20376;-52
2021/05/19 05:58:05;;;;;;;;;;;;;;;19.84;40.46;100009.59;4427123;32;19992;-51
2021/05/19 06:00:31;;;;;;;;;;;;;;;19.84;40.40;100012.25;4428402;32;19974;-50
2021/05/19 06:02:57;;;;;;;;;;;;;;;19.85;40.32;100014.03;4425287;32;19946;-51
2021/05/19 06:05:23;;;;;;;;;;;;;;;19.86;40.48;100015.78;4425385;32;20044;-50
2021/05/19 06:07:49;;;;;;;;;;;;;;;19.84;40.57;100021.91;4425348;32;19942;-52
2021/05/19 06:10:15;;;;;;;;;;;;;;;19.84;40.48;100022.81;4424146;32;19957;-50
2021/05/19 06:12:41;;;;;;;;;;;;;;;19.85;40.60;100029.88;4425948;32;20004;-52
2021/05/19 06:15:07;;;;;;;;;;;;;;;19.87;40.53;100028.13;4423257;32;21369;-51
2021/05/19 06:17:32;;;;;;;;;;;;;;;19.89;40.54;100026.38;4422920;32;19942;-51
2021/05/19 06:19:58;;;;;;;;;;;;;;;19.89;40.64;100022.88;4428309;32;19961;-49
2021/05/19 06:22:24;;;;;;;;;;;;;;;19.89;40.63;100026.38;4424943;32;19981;-52
2021/05/19 06:24:50;;;;;;;;;;;;;;;19.92;40.63;100025.53;4426388;32;20008;-51
2021/05/19 06:27:16;;;;;;;;;;;;;;;19.92;40.77;100015.84;4420817;32;19961;-50
2021/05/19 06:29:42;;;;;;;;;;;;;;;19.93;40.61;100017.63;4422060;32;19954;-51
2021/05/19 06:32:09;;;;;;;;;;;;;;;19.96;40.60;100026.47;4418651;32;19988;-52
2021/05/19 06:34:36;;;;;;;;;;;;;;;19.97;40.62;100030.91;4416915;32;19961;-52
2021/05/19 06:37:02;;;;;;;;;;;;;;;19.96;40.63;100032.63;4417897;32;20009;-52
2021/05/19 06:39:28;;;;;;;;;;;;;;;20.00;40.56;100039.75;4428023;32;20001;-50
2021/05/19 06:41:54;;;;;;;;;;;;;;;20.01;40.53;100038.88;4430822;32;20045;-52
2021/05/19 06:44:20;;;;;;;;;;;;;;;20.05;40.43;100038.00;4416292;32;19962;-51
2021/05/19 06:46:46;;;;;;;;;;;;;;;20.09;40.38;100044.22;4418866;32;19969;-50
2021/05/19 06:49:12;;;;;;;;;;;;;;;20.12;40.29;100044.22;4429996;32;19957;-54
2021/05/19 06:51:38;;;;;;;;;;;;;;;20.12;40.40;100043.31;4433807;32;20001;-53
2021/05/19 06:54:04;;;;;;;;;;;;;;;20.11;40.42;100042.47;4423498;32;19989;-50
2021/05/19 06:56:30;;;;;;;;;;;;;;;20.12;40.48;100049.50;4418811;32;19958;-51
2021/05/19 06:58:56;;;;;;;;;;;;;;;20.14;40.39;100053.06;4427140;32;20066;-53
2021/05/19 07:01:22;;;;;;;;;;;;;;;20.15;40.39;100052.19;4434129;32;19961;-49
2021/05/19 07:03:49;;;;;;;;;;;;;;;20.16;40.37;100046.00;4426635;32;19951;-50
2021/05/19 07:06:15;;;;;;;;;;;;;;;20.18;40.40;100048.69;4417531;32;19973;-52
2021/05/19 07:08:41;;;;;;;;;;;;;;;20.17;40.47;100047.78;4421819;32;19994;-52
2021/05/19 07:11:07;;;;;;;;;;;;;;;20.22;40.36;100051.38;4426316;32;19954;-53
2021/05/19 07:13:33;;;;;;;;;;;;;;;20.22;40.39;100051.38;4414335;32;19946;-48
2021/05/19 07:16:01;;;;;;;;;;;;;;;20.19;40.44;100059.28;4419893;32;20014;-54
2021/05/19 07:18:27;;;;;;;;;;;;;;;20.21;40.51;100060.16;4421699;32;19970;-54
2021/05/19 07:20:53;;;;;;;;;;;;;;;20.21;40.48;100059.28;4433398;32;19968;-51
2021/05/19 07:23:19;;;;;;;;;;;;;;;20.17;40.53;100058.34;4430631;32;19987;-51
2021/05/19 07:25:45;;;;;;;;;;;;;;;20.20;40.57;100063.69;4417277;32;20549;-49
2021/05/19 07:28:11;;;;;;;;;;;;;;;20.20;40.56;100058.41;4417939;32;19999;-53
2021/05/19 07:30:37;;;;;;;;;;;;;;;20.19;40.62;100061.94;4433291;32;20313;-54
2021/05/19 07:33:03;;;;;;;;;;;;;;;20.18;40.70;100054.84;4432783;32;19993;-54
2021/05/19 07:35:29;;;;;;;;;;;;;;;20.15;40.81;100046.03;4417848;32;20379;-51
2021/05/19 07:37:55;;;;;;;;;;;;;;;20.12;40.84;100052.16;4418906;32;19946;-49
2021/05/19 07:40:22;;;;;;;;;;;;;;;20.29;40.58;100057.59;4417251;32;19962;-51
2021/05/19 07:42:48;;;;;;;;;;;;;;;20.20;40.76;100047.81;4417532;32;20587;-54
2021/05/19 07:45:14;;;;;;;;;;;;;;;20.23;40.70;100057.53;4430804;32;20635;-52
2021/05/19 07:47:40;;;;;;;;;;;;;;;20.25;40.69;100058.44;4433429;32;19950;-50
2021/05/19 07:50:06;;;;;;;;;;;;;;;20.33;40.56;100059.38;4420372;32;20283;-49
2021/05/19 07:52:32;;;;;;;;;;;;;;;20.32;40.66;100046.16;4418216;32;19973;-47
2021/05/19 07:54:58;;;;;;;;;;;;;;;20.37;40.57;100055.00;4427784;32;20014;-50
2021/05/19 07:57:41;;;;;;;;;;;;;;;20.33;40.67;100059.38;4430345;32;19995;-49
2021/05/19 08:00:12;;;;;;;;;;;;;;;20.30;40.75;100048.78;4421554;32;19977;-49
2021/05/19 08:02:37;;;;;;;;;;;;;;;20.31;40.74;100050.53;4426675;32;20013;-48
2021/05/19 08:05:04;;;;;;;;;;;;;;;20.32;40.75;100051.44;4422802;32;19961;-49
2021/05/19 08:07:29;;;;;;;;;;;;;;;20.31;40.83;100050.53;4431077;32;19980;-57
2021/05/19 08:09:55;;;;;;;;;;;;;;;19.80;41.91;100058.00;4423253;32;19962;-54
2021/05/19 08:12:21;;;;;;;;;;;;;;;19.72;42.06;100049.12;4416411;32;20008;-53
2021/05/19 08:14:47;;;;;;;;;;;;;;;19.56;42.59;100048.94;4424470;32;19962;-55
2021/05/19 08:17:16;;;;;;;;;;;;;;;19.24;43.30;100047.72;4432886;32;20292;-55
2021/05/19 08:19:42;;;;;;;;;;;;;;;19.21;42.92;100050.34;4426418;32;19982;-56
2021/05/19 08:22:12;;;;;;;;;;;;;;;19.13;43.33;100051.97;4417838;32;20375;-53
2021/05/19 08:24:38;;;;;;;;;;;;;;;19.08;43.37;100051.94;4422576;32;19957;-56
2021/05/19 08:27:03;;;;;;;;;;;;;;;18.96;43.99;100057.03;4432022;32;19976;-56
2021/05/19 08:29:29;;;;;;;;;;;;;;;19.15;43.65;100058.19;4429002;32;19999;-56
2021/05/19 08:31:55;;;;;;;;;;;;;;;18.92;43.91;100052.56;4417285;32;20405;-56
2021/05/19 08:34:21;;;;;;;;;;;;;;;18.95;44.30;100053.50;4427505;32;19954;-57
2021/05/19 08:36:47;;;;;;;;;;;;;;;18.94;43.88;100059.66;4426572;32;19949;-57
2021/05/19 08:39:13;;;;;;;;;;;;;;;18.78;44.15;100058.53;4417265;32;19954;-56
2021/05/19 08:41:39;;;;;;;;;;;;;;;18.94;43.62;100049.09;4433713;32;19957;-57
2021/05/19 08:44:05;;;;;;;;;;;;;;;19.05;43.91;100056.31;4424056;32;20369;-56
2021/05/19 08:46:31;;;;;;;;;;;;;;;19.09;43.86;100053.72;4432203;32;19973;-58
2021/05/19 08:49:05;;;;;;;;;;;;;;;18.85;44.18;100069.19;4428782;32;19991;-58
2021/05/19 08:51:31;;;;;;;;;;;;;;;19.02;43.73;100056.28;4419469;32;19946;-57
2021/05/19 08:53:57;;;;;;;;;;;;;;;19.00;44.14;100063.25;4428638;32;20375;-56
2021/05/19 08:56:23;;;;;;;;;;;;;;;18.89;44.15;100049.91;4420629;32;20422;-56
2021/05/19 08:58:49;;;;;;;;;;;;;;;18.88;43.82;100051.63;4425967;32;19988;-58
2021/05/19 09:01:14;;;;;;;;;;;;;;;18.79;43.73;100051.53;4423050;32;20069;-58
2021/05/19 09:03:42;;;;;;;;;;;;;;;18.87;43.11;100046.34;4423487;32;20021;-57
2021/05/19 09:06:10;;;;;;;;;;;;;;;18.70;43.43;100047.00;4424088;32;20021;-56
2021/05/19 09:08:36;;;;;;;;;;;;;;;18.76;43.71;100048.81;4421722;32;19957;-58
2021/05/19 09:11:03;;;;;;;;;;;;;;;18.76;43.79;100049.72;4427076;32;19972;-56
2021/05/19 09:13:29;;;;;;;;;;;;;;;18.70;43.52;100047.00;4427888;32;20572;-57
2021/05/19 09:15:55;;;;;;;;;;;;;;;18.81;43.76;100042.75;4424961;32;20336;-58
2021/05/19 09:18:21;;;;;;;;;;;;;;;18.60;44.89;100047.75;4416306;32;19973;-58
2021/05/19 09:20:47;;;;;;;;;;;;;;;18.78;43.22;100047.13;4422653;32;20290;-58
2021/05/19 09:23:21;;;;;;;;;;;;;;;18.80;43.45;100048.91;4432527;32;19958;-56
2021/05/19 09:25:47;;;;;;;;;;;;;;;18.75;43.36;100047.97;4409626;32;19958;-57
2021/05/19 09:28:13;;;;;;;;;;;;;;;18.63;44.52;100039.88;4420220;32;20037;-53
2021/05/19 09:30:39;;;;;;;;;;;;;;;18.89;44.04;100044.63;4420485;32;19999;-53
2021/05/19 09:33:05;;;;;;;;;;;;;;;19.23;43.20;100045.09;4431802;32;19958;-50
2021/05/19 09:35:36;;;;;;;;;;;;;;;19.47;42.67;100043.59;4429607;32;19968;-51
2021/05/19 09:38:02;;;;;;;;;;;;;;;19.63;42.26;100037.59;4418280;32;20023;-53
2021/05/19 09:40:28;;;;;;;;;;;;;;;19.75;41.90;100033.31;4418277;32;21504;-50
2021/05/19 09:42:59;;;;;;;;;;;;;;;19.80;41.62;100029.84;4432328;32;19949;-51
2021/05/19 09:45:26;;;;;;;;;;;;;;;19.93;41.40;100025.56;4431301;32;19979;-55
2021/05/19 09:47:52;;;;;;;;;;;;;;;19.52;39.32;100026.03;4416886;32;19989;-52
2021/05/19 09:50:18;;;;;;;;;;;;;;;19.37;41.77;100027.63;4416446;32;19972;-52
2021/05/19 09:52:43;;;;;;;;;;;;;;;19.65;41.49;100027.91;4432187;32;19957;-49
2021/05/19 09:55:09;;;;;;;;;;;;;;;19.82;40.76;100028.97;4431730;32;19969;-50
2021/05/19 09:57:35;;;;;;;;;;;;;;;19.85;40.61;100026.34;4418877;32;19938;-53
2021/05/19 10:00:01;;;;;;;;;;;;;;;19.87;40.53;100028.13;4416511;32;20091;-49
2021/05/19 10:02:31;;;;;;;;;;;;;;;19.89;40.56;100018.44;4428809;32;20008;-53
2021/05/19 10:05:03;;;;;;;;;;;;;;;19.92;40.56;100017.59;4417034;32;19965;-49
2021/05/19 10:07:30;;;;;;;;;;;;;;;20.07;40.43;100008.94;4429516;32;19965;-52
2021/05/19 10:09:56;;;;;;;;;;;;;;;20.00;40.49;100012.41;4431214;32;19988;-52
2021/05/19 10:12:22;;;;;;;;;;;;;;;20.10;40.51;100003.69;4421283;32;20002;-53
2021/05/19 10:14:48;;;;;;;;;;;;;;;20.14;40.39;100004.59;4416984;32;19980;-52
2021/05/19 10:17:14;;;;;;;;;;;;;;;20.20;40.19;100005.53;4425561;32;19995;-49
2021/05/19 10:19:40;;;;;;;;;;;;;;;20.21;40.16;100002.00;4431551;32;20361;-49
2021/05/19 10:22:05;;;;;;;;;;;;;;;20.24;40.08;100005.53;4424182;32;19965;-49
2021/05/19 10:24:31;;;;;;;;;;;;;;;20.29;40.03;99999.41;4416767;32;19946;-54
2021/05/19 10:26:57;;;;;;;;;;;;;;;20.32;40.10;100003.84;4418097;32;19962;-54
2021/05/19 10:29:23;;;;;;;;;;;;;;;19.76;39.37;99998.97;4426507;32;20036;-53
2021/05/19 10:31:49;;;;;;;;;;;;;;;19.94;39.70;99993.00;4425164;32;20010;-51
2021/05/19 10:34:15;;;;;;;;;;;;;;;20.10;39.48;99993.09;4414841;32;19979;-52
2021/05/19 10:36:41;;;;;;;;;;;;;;;20.19;39.71;99993.19;4429471;32;19990;-53
2021/05/19 10:39:08;;;;;;;;;;;;;;;20.21;39.69;99986.16;4427653;32;19961;-50
2021/05/19 10:41:33;;;;;;;;;;;;;;;20.29;39.49;99987.94;4415513;32;20324;-51
2021/05/19 10:43:59;;;;;;;;;;;;;;;20.34;39.57;99988.88;4423307;32;19954;-52
2021/05/19 10:46:25;;;;;;;;;;;;;;;20.35;39.54;99988.00;4416389;32;19958;-50
2021/05/19 10:48:54;;;;;;;;;;;;;;;20.33;39.73;99990.59;4431395;32;19981;-54
2021/05/19 10:51:22;;;;;;;;;;;;;;;20.35;39.64;99972.13;4422870;32;19958;-51
2021/05/19 10:59:17;;;;;;;;;;;;;;;20.41;39.47;99969.50;4409061;32;19973;-52
2021/05/19 11:01:44;;;;;;;;;;;;;;;20.39;39.59;99968.59;4414149;32;20009;-53
2021/05/19 11:04:10;;;;;;;;;;;;;;;20.42;39.69;99965.97;4408643;32;20261;-53
2021/05/19 11:06:36;;;;;;;;;;;;;;;20.42;39.36;99960.69;4405811;32;20345;-50
2021/05/19 11:09:02;;;;;;;;;;;;;;;20.47;39.54;99956.31;4407645;32;19966;-49
2021/05/19 11:11:30;;;;;;;;;;;;;;;20.52;39.47;99963.37;4415208;32;20596;-52
2021/05/19 11:13:57;;;;;;;;;;;;;;;20.54;39.26;99961.63;4410354;32;19942;-54
2021/05/19 11:16:28;;;;;;;;;;;;;;;20.56;39.68;99957.22;4408408;32;19954;-54
2021/05/19 11:19:18;;;;;;;;;;;;;;;20.54;39.57;99951.03;4408441;32;19958;-51
2021/05/19 11:21:44;;;;;;;;;;;;;;;20.54;39.75;99951.03;4416942;32;20324;-52
2021/05/19 11:24:12;;;;;;;;;;;;;;;20.47;39.63;99951.03;4421028;32;19949;-55
2021/05/19 11:26:38;;;;;;;;;;;;;;;20.55;39.63;99942.22;4427123;32;19982;-54
2021/05/19 11:29:04;;;;;;;;;;;;;;;20.59;39.60;99938.75;4424538;32;20566;-51
2021/05/19 11:31:30;;;;;;;;;;;;;;;20.62;39.55;99938.75;4418538;32;19965;-53
2021/05/19 11:33:56;;;;;;;;;;;;;;;20.63;39.30;99940.53;4432954;32;20009;-51
2021/05/19 11:36:21;;;;;;;;;;;;;;;20.70;39.20;99942.31;4430978;32;19957;-51
2021/05/19 11:38:48;;;;;;;;;;;;;;;20.67;39.18;99937.00;4423042;32;19984;-54
2021/05/19 11:41:13;;;;;;;;;;;;;;;20.64;39.53;99929.06;4427317;32;19985;-53
2021/05/19 11:43:39;;;;;;;;;;;;;;;20.70;39.46;99941.44;4425858;32;19961;-55
2021/05/19 11:46:05;;;;;;;;;;;;;;;20.70;39.41;99926.44;4426758;32;19969;-53
2021/05/19 11:48:31;;;;;;;;;;;;;;;20.74;39.50;99928.22;4426739;32;19983;-53
2021/05/19 11:50:57;;;;;;;;;;;;;;;20.79;39.11;99915.88;4423569;32;20295;-56
2021/05/19 11:53:24;;;;;;;;;;;;;;;20.46;37.26;99920.19;4424006;32;19942;-57
2021/05/19 11:55:50;;;;;;;;;;;;;;;19.98;36.20;99914.59;4423472;32;20350;-57
2021/05/19 11:58:16;;;;;;;;;;;;;;;19.94;36.53;99916.34;4427697;32;20590;-56
2021/05/19 12:00:43;;;;;;;;;;;;;;;19.85;36.92;99925.91;4417707;32;19950;-58
2021/05/19 12:03:08;;;;;;;;;;;;;;;19.73;36.65;99917.03;4420922;32;19958;-61
2021/05/19 12:05:34;;;;;;;;;;;;;;;20.01;36.90;99908.44;4427448;32;19990;-57
2021/05/19 12:08:00;;;;;;;;;;;;;;;19.97;36.75;99917.25;4421460;32;20002;-57
2021/05/19 12:10:26;;;;;;;;;;;;;;;19.99;36.15;99910.22;4432363;32;19958;-56
2021/05/19 12:12:56;;;;;;;;;;;;;;;20.21;35.62;99917.41;4432491;32;19954;-57
2021/05/19 12:15:22;;;;;;;;;;;;;;;20.30;35.92;99905.09;4424704;32;20763;-58
2021/05/19 12:17:48;;;;;;;;;;;;;;;20.19;35.49;99908.59;4421166;32;20007;-56
2021/05/19 12:20:14;;;;;;;;;;;;;;;20.35;35.65;99903.38;4423341;32;19962;-58
2021/05/19 12:22:40;;;;;;;;;;;;;;;20.48;35.35;99907.84;4420186;32;19976;-57
2021/05/19 12:25:06;;;;;;;;;;;;;;;20.51;35.96;99904.34;4425007;32;20351;-58
2021/05/19 12:27:32;;;;;;;;;;;;;;;20.60;35.59;99903.47;4428696;32;19994;-56
2021/05/19 12:29:58;;;;;;;;;;;;;;;20.33;36.49;99911.28;4427584;32;19958;-57
2021/05/19 12:32:24;;;;;;;;;;;;;;;20.32;36.50;99908.66;4422159;32;20034;-58
2021/05/19 12:34:50;;;;;;;;;;;;;;;20.37;36.09;99912.19;4423251;32;20661;-59
2021/05/19 12:37:15;;;;;;;;;;;;;;;20.36;36.48;99916.56;4426365;32;20450;-58
2021/05/19 12:39:42;;;;;;;;;;;;;;;20.42;37.02;99915.72;4417800;32;19990;-56
2021/05/19 12:42:08;;;;;;;;;;;;;;;20.39;36.71;99904.28;4416476;32;19992;-58
2021/05/19 12:44:34;;;;;;;;;;;;;;;20.52;35.68;99911.38;4425199;32;20018;-58
2021/05/19 12:47:01;;;;;;;;;;;;;;;20.65;35.97;99907.00;4414224;32;19950;-58